createdAt,value
2017-12-16T00:00:08.307Z,945.07
2017-12-16T00:15:05.313Z,944.77
2017-12-16T00:30:05.116Z,945.47
2017-12-16T00:45:05.219Z,945.23
2017-12-16T01:00:04.733Z,945.98
2017-12-16T01:15:04.834Z,945.82
2017-12-16T01:30:05.242Z,945.39
2017-12-16T01:45:07.807Z,946.27
2017-12-16T02:00:04.465Z,946.35
2017-12-16T02:15:04.900Z,947.47
2017-12-16T02:30:05.010Z,946.56
2017-12-16T02:45:07.952Z,948.68
2017-12-16T03:00:05.167Z,947.58
2017-12-16T03:15:06.788Z,946.7
2017-12-16T03:30:05.113Z,946.78
2017-12-16T03:45:05.285Z,947.05
2017-12-16T04:00:05.332Z,947.74
2017-12-16T04:15:05.447Z,947.39
2017-12-16T04:30:05.133Z,947.85
2017-12-16T04:45:04.681Z,948.22
2017-12-16T05:00:05.393Z,948.01
2017-12-16T05:15:06.082Z,948.28
2017-12-16T05:30:06.055Z,948.04
2017-12-16T05:45:05.819Z,949.08
2017-12-16T06:00:07.985Z,948.95
2017-12-16T06:15:06.027Z,949.05
2017-12-16T06:30:08.520Z,949.69
2017-12-16T06:45:04.657Z,950.12
2017-12-16T07:00:13.451Z,950.23
2017-12-16T07:15:05.429Z,951.51
2017-12-16T07:30:20.642Z,950.55
2017-12-16T07:45:04.592Z,951.11
2017-12-16T08:00:05.081Z,950.74
2017-12-16T08:15:04.503Z,950.44
2017-12-16T08:30:05.218Z,952
2017-12-16T08:45:05.276Z,951.67
2017-12-16T09:00:04.805Z,951.54
2017-12-16T09:15:05.458Z,951.94
2017-12-16T09:30:07.786Z,958.79
2017-12-16T09:45:04.775Z,958.77
2017-12-16T10:00:05.098Z,952.4
2017-12-16T10:15:05.526Z,952.4
2017-12-16T10:30:08.373Z,952.66
2017-12-16T10:45:05.271Z,952.8
2017-12-16T11:00:06.169Z,952.99
2017-12-16T11:15:05.112Z,953.6
2017-12-16T11:30:04.784Z,953.71
2017-12-16T11:45:05.160Z,960.55
2017-12-16T12:00:05.084Z,960.6
2017-12-16T12:15:04.453Z,960.85
2017-12-16T12:30:04.589Z,960.41
2017-12-16T12:45:05.001Z,961.06
2017-12-16T13:00:05.839Z,960.79
2017-12-16T13:15:04.764Z,954.08
2017-12-16T13:30:06.343Z,954.46
2017-12-16T13:45:05.213Z,954.56
2017-12-16T14:00:05.089Z,955.53
2017-12-16T14:15:04.589Z,955.45
2017-12-16T14:30:04.993Z,956.52
2017-12-16T14:45:05.348Z,956.95
2017-12-16T15:00:06.462Z,956.84
2017-12-16T15:15:04.608Z,956.76
2017-12-16T15:30:05.441Z,956.73
2017-12-16T15:45:05.156Z,956.79
2017-12-16T16:00:04.980Z,957
2017-12-16T16:15:05.196Z,957.13
2017-12-16T16:30:05.070Z,957.35
2017-12-16T16:45:05.220Z,958.31
2017-12-16T17:00:05.861Z,958.18
2017-12-16T17:15:06.079Z,958.02
2017-12-16T17:30:05.021Z,958.6
2017-12-16T17:45:06.241Z,958.55
2017-12-16T18:00:04.903Z,959.33
2017-12-16T18:15:06.086Z,959.3
2017-12-16T18:30:06.501Z,959.14
2017-12-16T18:45:04.625Z,959.54
2017-12-16T19:00:05.349Z,959.38
2017-12-16T19:15:06.040Z,960.45
2017-12-16T19:30:05.998Z,960.05
2017-12-16T19:45:05.559Z,959.62
2017-12-16T20:00:17.465Z,960.16
2017-12-16T20:15:07.862Z,959.97
2017-12-16T20:30:05.479Z,962.14
2017-12-16T20:45:05.487Z,962.73
2017-12-16T21:00:10.856Z,963.13
2017-12-16T21:15:05.107Z,963.64
2017-12-16T21:30:04.922Z,963.8
2017-12-16T21:45:06.089Z,963.88
2017-12-16T22:00:04.764Z,964.06
2017-12-16T22:15:08.041Z,964.36
2017-12-16T22:30:05.353Z,964.87
2017-12-16T22:47:17.311Z,964.79
2017-12-16T23:00:05.088Z,964.57
2017-12-16T23:15:04.925Z,964.31
2017-12-16T23:30:05.015Z,964.76
2017-12-16T23:45:05.430Z,964.76
